createdAt,value
2022-07-26T00:00:20.648Z,21.08
2022-07-26T00:05:43.257Z,20.82
2022-07-26T00:11:07.103Z,20.74
2022-07-26T00:16:30.183Z,20.81
2022-07-26T00:22:12.763Z,20.47
2022-07-26T00:27:38.971Z,20.54
2022-07-26T00:33:01.957Z,20.49
2022-07-26T00:38:26.857Z,20.07
2022-07-26T00:44:00.357Z,20.11
2022-07-26T00:49:22.857Z,20.01
2022-07-26T00:54:48.240Z,20.26
2022-07-26T01:00:14.468Z,20.22
2022-07-26T01:05:37.207Z,19.98
2022-07-26T01:11:00.441Z,19.98
2022-07-26T01:16:22.880Z,20.15
2022-07-26T01:21:46.472Z,20.13
2022-07-26T01:27:09.332Z,20.15
2022-07-26T01:32:31.530Z,20.00
2022-07-26T01:37:54.783Z,20.08
2022-07-26T01:43:17.008Z,19.89
2022-07-26T01:48:40.115Z,20.13
2022-07-26T01:54:03.219Z,20.14
2022-07-26T01:59:25.731Z,20.09
2022-07-26T02:05:00.109Z,20.01
2022-07-26T02:10:22.651Z,20.00
2022-07-26T02:15:44.800Z,19.97
2022-07-26T02:21:08.492Z,20.11
2022-07-26T02:26:31.068Z,19.86
2022-07-26T02:31:54.890Z,20.09
2022-07-26T02:37:17.492Z,19.94
2022-07-26T02:42:39.739Z,19.90
2022-07-26T02:48:02.930Z,19.80
2022-07-26T02:53:25.419Z,20.00
2022-07-26T02:58:49.835Z,20.00
2022-07-26T03:04:14.775Z,20.01
2022-07-26T03:09:39.754Z,20.47
2022-07-26T03:15:02.249Z,20.51
2022-07-26T03:20:25.613Z,20.68
2022-07-26T03:25:47.655Z,20.73
2022-07-26T03:31:09.849Z,20.85
2022-07-26T03:36:32.394Z,20.95
2022-07-26T03:41:54.751Z,21.26
2022-07-26T03:47:17.451Z,21.51
2022-07-26T03:52:39.346Z,21.72
2022-07-26T03:58:01.452Z,21.93
2022-07-26T04:03:23.447Z,22.06
2022-07-26T04:08:45.558Z,22.24
2022-07-26T04:14:08.317Z,22.65
2022-07-26T04:19:46.999Z,22.86
2022-07-26T04:25:11.416Z,22.93
2022-07-26T04:30:33.752Z,23.19
2022-07-26T04:35:58.522Z,23.50
2022-07-26T04:41:24.422Z,24.12
2022-07-26T04:46:46.753Z,24.57
2022-07-26T04:52:09.074Z,24.53
2022-07-26T04:57:31.254Z,24.66
2022-07-26T05:02:58.954Z,24.61
2022-07-26T05:08:21.669Z,24.70
2022-07-26T05:13:47.071Z,24.80
2022-07-26T05:19:10.026Z,24.58
2022-07-26T05:24:31.760Z,25.05
2022-07-26T05:29:54.052Z,25.11
2022-07-26T05:35:16.799Z,25.17
2022-07-26T05:40:38.923Z,25.32
2022-07-26T05:46:02.927Z,25.47
2022-07-26T05:51:26.711Z,25.56
2022-07-26T05:56:50.194Z,25.88
2022-07-26T06:02:12.183Z,26.37
2022-07-26T06:07:34.937Z,26.71
2022-07-26T06:12:57.022Z,26.87
2022-07-26T06:18:19.296Z,27.02
2022-07-26T06:23:42.803Z,26.84
2022-07-26T06:29:04.710Z,27.11
2022-07-26T06:34:27.114Z,27.21
2022-07-26T06:39:49.411Z,27.31
2022-07-26T06:45:11.981Z,27.45
2022-07-26T06:50:34.233Z,27.38
2022-07-26T06:55:56.903Z,27.31
2022-07-26T07:01:55.431Z,27.40
2022-07-26T07:07:06.500Z,27.61
2022-07-26T07:12:31.227Z,27.86
2022-07-26T07:17:54.138Z,28.07
2022-07-26T07:23:16.508Z,28.10
2022-07-26T07:28:39.109Z,28.36
2022-07-26T07:34:01.059Z,28.49
2022-07-26T07:39:34.455Z,28.55
2022-07-26T07:44:57.289Z,28.46
2022-07-26T07:50:19.638Z,28.32
2022-07-26T07:55:46.117Z,28.30
2022-07-26T08:01:10.165Z,28.15
2022-07-26T08:06:35.800Z,28.11
2022-07-26T08:11:58.331Z,27.99
2022-07-26T08:17:21.901Z,27.96
2022-07-26T08:22:46.779Z,27.90
2022-07-26T08:28:30.662Z,28.21
2022-07-26T08:33:57.908Z,28.72
2022-07-26T08:39:20.238Z,28.86
2022-07-26T08:44:52.450Z,29.34
2022-07-26T08:50:20.361Z,29.09
2022-07-26T08:56:05.900Z,29.38
2022-07-26T09:01:35.091Z,29.54
2022-07-26T09:07:19.325Z,29.67
2022-07-26T09:13:31.531Z,29.90
2022-07-26T09:19:25.371Z,30.04
2022-07-26T09:24:48.623Z,30.01
2022-07-26T09:30:12.444Z,30.15
2022-07-26T09:35:50.774Z,30.40
2022-07-26T09:41:33.524Z,30.33
2022-07-26T09:47:00.359Z,30.45
2022-07-26T09:52:22.765Z,30.36
2022-07-26T09:57:44.936Z,30.24
2022-07-26T10:03:08.095Z,30.78
2022-07-26T10:08:31.213Z,30.89
2022-07-26T10:13:53.814Z,30.50
2022-07-26T10:19:41.714Z,30.44
2022-07-26T10:25:21.506Z,30.61
2022-07-26T10:30:43.728Z,30.46
2022-07-26T10:36:23.428Z,29.96
2022-07-26T10:41:48.246Z,30.19
2022-07-26T10:47:12.151Z,29.97
2022-07-26T10:52:34.227Z,29.77
2022-07-26T10:57:56.545Z,29.81
2022-07-26T11:03:18.942Z,30.59
2022-07-26T11:08:48.341Z,30.84
2022-07-26T11:14:14.006Z,30.93
2022-07-26T11:19:41.014Z,30.79
2022-07-26T11:25:05.588Z,30.89
2022-07-26T11:30:28.126Z,31.34
2022-07-26T11:35:53.442Z,31.64
2022-07-26T11:41:19.073Z,31.63
2022-07-26T11:46:48.875Z,31.27
2022-07-26T11:52:13.523Z,30.77
2022-07-26T11:57:36.257Z,30.65
2022-07-26T12:03:00.929Z,30.63
2022-07-26T12:08:26.008Z,30.46
2022-07-26T12:14:04.421Z,30.19
2022-07-26T12:19:30.693Z,30.06
2022-07-26T12:25:02.794Z,29.65
2022-07-26T12:30:37.980Z,29.49
2022-07-26T12:36:18.780Z,29.43
2022-07-26T12:41:59.023Z,29.22
2022-07-26T12:47:23.688Z,29.04
2022-07-26T12:52:46.583Z,29.04
2022-07-26T12:58:09.254Z,28.83
2022-07-26T13:03:31.257Z,28.59
2022-07-26T13:08:56.277Z,28.47
2022-07-26T13:14:26.563Z,28.57
2022-07-26T13:19:49.407Z,27.83
2022-07-26T13:25:16.492Z,27.82
2022-07-26T13:30:43.668Z,27.12
2022-07-26T13:36:06.327Z,26.70
2022-07-26T13:41:30.357Z,26.41
2022-07-26T13:46:54.303Z,26.00
2022-07-26T13:52:17.105Z,25.83
2022-07-26T13:57:52.946Z,25.76
2022-07-26T14:03:30.820Z,25.71
2022-07-26T14:08:55.468Z,25.65
2022-07-26T14:14:17.633Z,25.55
2022-07-26T14:19:39.668Z,25.39
2022-07-26T14:25:02.144Z,25.17
2022-07-26T14:30:25.352Z,25.11
2022-07-26T14:35:47.463Z,25.18
2022-07-26T14:49:16.288Z,25.34
2022-07-26T14:54:39.633Z,25.45
2022-07-26T15:00:01.663Z,25.38
2022-07-26T15:05:27.535Z,25.35
2022-07-26T15:10:50.517Z,25.05
2022-07-26T15:16:15.458Z,25.08
2022-07-26T15:21:37.549Z,25.06
2022-07-26T15:26:59.371Z,25.09
2022-07-26T15:32:22.030Z,25.15
2022-07-26T15:37:44.322Z,25.15
2022-07-26T15:43:06.985Z,25.15
2022-07-26T15:48:31.569Z,25.03
2022-07-26T15:53:54.240Z,24.94
2022-07-26T15:59:16.527Z,24.87
2022-07-26T16:04:39.670Z,24.76
2022-07-26T16:10:02.729Z,24.63
2022-07-26T16:15:25.757Z,24.38
2022-07-26T16:20:48.226Z,24.26
2022-07-26T16:26:12.943Z,23.88
2022-07-26T16:31:35.375Z,24.02
2022-07-26T16:36:57.614Z,23.95
2022-07-26T16:42:19.872Z,23.66
2022-07-26T16:47:42.167Z,23.79
2022-07-26T16:53:13.347Z,23.40
2022-07-26T16:58:36.279Z,23.53
2022-07-26T17:03:59.677Z,23.39
2022-07-26T17:09:23.830Z,23.49
2022-07-26T17:14:46.105Z,23.42
2022-07-26T17:20:21.153Z,23.36
2022-07-26T17:25:44.762Z,23.38
2022-07-26T17:31:06.922Z,23.32
2022-07-26T17:36:31.407Z,23.25
2022-07-26T17:41:54.070Z,23.13
2022-07-26T17:47:28.044Z,23.00
2022-07-26T17:52:53.602Z,22.89
2022-07-26T17:58:16.019Z,22.78
2022-07-26T18:11:10.765Z,22.47
2022-07-26T18:16:33.676Z,22.34
2022-07-26T18:21:55.804Z,22.23
2022-07-26T18:27:18.016Z,22.16
2022-07-26T18:32:40.005Z,22.08
2022-07-26T18:38:02.506Z,21.96
2022-07-26T18:43:24.835Z,21.96
2022-07-26T18:48:47.291Z,21.84
2022-07-26T18:54:10.506Z,21.82
2022-07-26T18:59:33.539Z,21.78
2022-07-26T19:04:55.564Z,21.62
2022-07-26T19:10:17.844Z,21.57
2022-07-26T19:15:43.268Z,21.47
2022-07-26T19:21:05.345Z,21.40
2022-07-26T19:26:27.912Z,21.32
2022-07-26T19:31:49.726Z,21.24
2022-07-26T19:37:12.033Z,21.13
2022-07-26T19:42:34.155Z,21.06
2022-07-26T19:47:56.190Z,21.05
2022-07-26T19:53:18.811Z,21.05
2022-07-26T19:58:40.987Z,20.84
2022-07-26T20:04:03.539Z,20.88
2022-07-26T20:09:28.118Z,20.81
2022-07-26T20:14:50.304Z,20.72
2022-07-26T20:25:50.785Z,20.63
2022-07-26T20:31:13.406Z,20.45
2022-07-26T20:44:42.888Z,20.38
2022-07-26T20:50:06.193Z,20.37
2022-07-26T20:55:28.371Z,19.91
2022-07-26T21:00:50.948Z,19.99
2022-07-26T21:06:13.157Z,20.02
2022-07-26T21:11:36.254Z,20.18
2022-07-26T21:16:58.129Z,19.93
2022-07-26T21:22:20.283Z,20.14
2022-07-26T21:27:43.322Z,19.98
2022-07-26T21:33:05.438Z,19.89
2022-07-26T21:38:30.323Z,19.79
2022-07-26T21:43:52.436Z,19.82
2022-07-26T21:49:15.240Z,19.68
2022-07-26T21:54:40.040Z,19.73
2022-07-26T22:00:02.204Z,19.67
2022-07-26T22:05:40.412Z,19.62
2022-07-26T22:11:02.610Z,19.59
2022-07-26T22:16:24.948Z,19.42
2022-07-26T22:21:47.232Z,19.40
2022-07-26T22:27:11.397Z,19.41
2022-07-26T22:32:33.033Z,19.29
2022-07-26T22:37:56.114Z,19.28
2022-07-26T22:43:19.688Z,19.23
2022-07-26T22:48:45.998Z,19.18
2022-07-26T22:54:10.419Z,19.14
2022-07-26T22:59:32.868Z,19.12
2022-07-26T23:04:54.461Z,19.13
2022-07-26T23:10:17.297Z,19.09
2022-07-26T23:15:41.801Z,19.04
2022-07-26T23:21:04.293Z,18.99
2022-07-26T23:26:26.765Z,18.82
2022-07-26T23:31:49.354Z,18.45
2022-07-26T23:37:11.594Z,18.63
2022-07-26T23:42:34.050Z,18.31
2022-07-26T23:47:56.532Z,18.40
2022-07-26T23:53:18.791Z,18.28
2022-07-26T23:58:49.623Z,18.30
